EKSA weather

Sæby (Ottestrup) Airport
Sæby, North Jutland, Denmark

Public forecast

Using degrees Celsius for public forecast. Weather courtesy of forecast.io.

METAR (pilot weather report)

Closest report is Sindal Airport, 11.0 nm (20.4 km) NNW. Retrieved 2019/05/22 10:20 UTC (15 minutes ago):

EKSN 221020Z 24014KT 4500 -RA BKN005 11/11 Q1010

TAF (pilot weather forecast)

Closest forecast is Aalborg Airport, 23.7 nm (43.9 km) SW. Retrieved 2019/05/22 09:09 UTC (1 hour ago):

TAF TAF EKYT 220758Z 2209/2309 28012KT 4000 RA BR BKN004 FEW030CB BECMG 2209/2211 9999 NSW BKN008 BECMG 2212/2214 SCT020 TEMPO 2222/2305 7000 BKN008 BECMG 2300/2303 23006KT TEMPO 2305/2307 BKN012